Time;durP1;ratioP1;P1;durP2;ratioP2;P2;SDS_P1;SDS_P2;PMS_P1;PMS_P2;Temp;Humidity;BMP_temperature;BMP_pressure;BME280_temperature;BME280_humidity;BME280_pressure;Samples;Min_cycle;Max_cycle;Signal;HPM_P1;HPM_P2
2021/07/30 00:02:00;;;;;;;7.53;4.80;;;;;;;14.40;79.16;100970.97;5286691;28;20024;-67
2021/07/30 00:04:31;;;;;;;11.15;5.20;;;;;;;14.38;80.09;100971.09;5285521;28;20120;-67
2021/07/30 00:07:03;;;;;;;7.32;5.53;;;;;;;14.35;80.07;100974.84;5287825;28;20024;-67
2021/07/30 00:09:34;;;;;;;13.20;5.28;;;;;;;14.32;80.22;100972.53;5283135;28;20111;-67
2021/07/30 00:12:06;;;;;;;12.57;5.40;;;;;;;14.29;80.26;100972.84;5284631;28;20024;-70
2021/07/30 00:14:38;;;;;;;9.70;5.20;;;;;;;14.33;80.47;100973.38;5286157;28;20028;-67
2021/07/30 00:17:09;;;;;;;11.65;5.32;;;;;;;14.28;80.81;100968.56;5286297;28;20071;-67
2021/07/30 00:19:40;;;;;;;10.10;5.78;;;;;;;14.28;80.67;100965.91;5287472;28;20524;-67
2021/07/30 00:22:11;;;;;;;12.65;6.20;;;;;;;14.27;80.75;100966.88;5286584;28;20039;-68
2021/07/30 00:24:43;;;;;;;11.90;5.43;;;;;;;14.27;81.06;100961.59;5285357;28;20029;-68
2021/07/30 00:27:14;;;;;;;9.50;5.32;;;;;;;14.24;81.23;100961.91;5286217;28;20143;-68
2021/07/30 00:29:45;;;;;;;9.70;5.63;;;;;;;14.26;80.85;100954.69;5286163;28;20486;-68
2021/07/30 00:32:16;;;;;;;9.77;5.32;;;;;;;14.19;81.16;100961.53;5284269;28;20028;-67
2021/07/30 00:34:48;;;;;;;10.88;5.80;;;;;;;14.18;81.95;100959.06;5282391;28;20023;-68
2021/07/30 00:37:19;;;;;;;8.82;5.07;;;;;;;14.17;82.17;100960.03;5285849;28;20524;-68
2021/07/30 00:39:50;;;;;;;12.00;6.15;;;;;;;14.15;81.88;100954.09;5285674;28;20477;-67
2021/07/30 00:42:22;;;;;;;13.85;5.80;;;;;;;14.15;82.83;100951.47;5284483;28;20040;-67
2021/07/30 00:44:53;;;;;;;7.88;4.78;;;;;;;14.14;82.85;100958.53;5286091;28;20110;-68
2021/07/30 00:47:26;;;;;;;11.52;5.90;;;;;;;14.10;82.76;100946.66;5285781;28;20497;-67
2021/07/30 00:49:58;;;;;;;;;;;;;;;14.39;80.59;100946.38;5278246;28;20311;-67
2021/07/30 00:52:30;;;;;;;7.82;4.57;;;;;;;14.08;83.02;100945.97;5284293;28;19908;-67
2021/07/30 00:55:01;;;;;;;11.05;5.32;;;;;;;14.11;83.41;100946.47;5284501;28;20493;-68
2021/07/30 00:57:32;;;;;;;10.95;5.25;;;;;;;14.09;83.79;100947.59;5286820;28;20073;-67
2021/07/30 01:00:04;;;;;;;12.43;5.75;;;;;;;14.10;83.85;100952.75;5283884;28;20119;-68
2021/07/30 01:02:36;;;;;;;11.15;5.78;;;;;;;13.97;84.14;100944.38;5284524;28;20046;-68
2021/07/30 01:05:08;;;;;;;9.52;6.10;;;;;;;14.02;84.21;100954.47;5285444;28;20028;-67
2021/07/30 01:07:39;;;;;;;10.02;5.88;;;;;;;14.06;83.91;100950.56;5281935;28;20085;-68
2021/07/30 01:10:11;;;;;;;11.95;5.53;;;;;;;14.04;84.31;100953.31;5285453;28;20028;-68
2021/07/30 01:12:44;;;;;;;10.48;5.50;;;;;;;13.95;85.30;100948.97;5283148;28;20044;-67
2021/07/30 01:15:15;;;;;;;12.93;6.13;;;;;;;13.97;84.76;100939.09;5286802;28;20059;-68
2021/07/30 01:17:47;;;;;;;8.07;5.80;;;;;;;13.95;84.99;100948.97;5281946;28;20146;-67
2021/07/30 01:20:22;;;;;;;10.73;5.05;;;;;;;13.91;85.27;100942.34;5282987;28;20044;-68
2021/07/30 01:22:58;;;;;;;9.70;5.78;;;;;;;13.93;86.18;100945.66;5285204;28;20495;-67
2021/07/30 01:25:29;;;;;;;10.65;6.10;;;;;;;13.91;86.30;100952.06;5283778;28;20032;-67
2021/07/30 01:28:01;;;;;;;10.98;5.25;;;;;;;13.87;86.20;100947.09;5283003;28;20023;-67
2021/07/30 01:30:32;;;;;;;9.73;5.97;;;;;;;13.87;86.64;100954.97;5284967;28;22015;-67
2021/07/30 01:33:04;;;;;;;8.00;5.40;;;;;;;13.85;86.69;100954.28;5284501;28;20059;-67
2021/07/30 01:35:35;;;;;;;9.88;5.60;;;;;;;13.86;87.01;100952.47;5286554;28;20519;-67
2021/07/30 01:38:06;;;;;;;10.07;5.68;;;;;;;13.82;87.16;100951.94;5285410;28;20110;-68
2021/07/30 01:40:37;;;;;;;10.85;5.70;;;;;;;13.76;87.46;100944.66;5283210;28;20039;-68
2021/07/30 01:43:09;;;;;;;13.88;6.25;;;;;;;13.75;87.99;100945.66;5284875;28;20028;-67
2021/07/30 01:45:40;;;;;;;12.30;5.88;;;;;;;13.78;87.72;100944.50;5283110;28;20036;-67
2021/07/30 01:48:11;;;;;;;9.55;5.53;;;;;;;13.75;88.51;100943.00;5285262;28;20108;-68
2021/07/30 01:50:42;;;;;;;11.60;5.72;;;;;;;13.71;88.60;100938.16;5281218;28;20111;-67
2021/07/30 01:53:14;;;;;;;12.15;6.15;;;;;;;13.72;88.30;100932.78;5282868;28;20028;-67
2021/07/30 01:55:45;;;;;;;10.02;5.35;;;;;;;13.72;88.65;100924.03;5286682;28;20085;-67
2021/07/30 01:58:16;;;;;;;12.50;5.90;;;;;;;13.67;89.00;100928.91;5281438;28;20408;-68
2021/07/30 02:00:48;;;;;;;9.73;5.70;;;;;;;13.69;89.50;100930.44;5282438;28;20484;-68
2021/07/30 02:03:19;;;;;;;12.10;5.80;;;;;;;13.70;89.50;100926.81;5282470;28;20017;-67
2021/07/30 02:05:50;;;;;;;11.30;6.50;;;;;;;13.68;89.33;100928.78;5285297;28;20020;-68
2021/07/30 02:08:21;;;;;;;11.15;5.90;;;;;;;13.68;89.46;100931.41;5267367;28;20030;-67
2021/07/30 02:10:53;;;;;;;11.30;5.85;;;;;;;13.67;89.28;100923.66;5286063;28;20110;-67
2021/07/30 02:16:14;;;;;;;11.85;6.03;;;;;;;13.62;91.04;100934.63;5283857;28;20489;-68
2021/07/30 02:18:45;;;;;;;7.95;5.25;;;;;;;13.66;90.57;100932.53;5283593;28;20020;-69
2021/07/30 02:21:17;;;;;;;12.30;6.05;;;;;;;13.65;90.66;100926.44;5284492;28;20138;-68
2021/07/30 02:23:49;;;;;;;11.45;6.20;;;;;;;13.62;91.32;100926.72;5282905;28;20024;-68
2021/07/30 02:26:20;;;;;;;9.80;5.60;;;;;;;13.59;91.20;100924.38;5282612;28;20113;-68
2021/07/30 02:28:53;;;;;;;9.20;6.32;;;;;;;13.60;91.70;100921.63;5283755;28;20016;-68
2021/07/30 02:31:25;;;;;;;9.60;5.63;;;;;;;13.56;92.12;100920.25;5285061;28;20114;-68
2021/07/30 02:33:56;;;;;;;15.45;6.20;;;;;;;13.48;91.94;100919.31;5284238;28;20030;-68
2021/07/30 02:36:28;;;;;;;11.88;6.10;;;;;;;13.49;92.32;100921.00;5283411;28;20032;-68
2021/07/30 02:38:59;;;;;;;10.98;6.40;;;;;;;13.45;92.05;100920.47;5284360;28;20039;-68
2021/07/30 02:41:31;;;;;;;10.75;5.93;;;;;;;13.35;92.17;100909.97;5283784;28;20052;-68
2021/07/30 02:44:02;;;;;;;10.88;6.22;;;;;;;13.44;93.34;100915.31;5284071;28;20028;-68
2021/07/30 02:46:33;;;;;;;13.30;6.15;;;;;;;13.36;92.44;100911.63;5285331;28;20075;-68
2021/07/30 02:49:05;;;;;;;14.20;6.05;;;;;;;13.38;93.74;100914.13;5284780;28;20445;-68
2021/07/30 02:51:36;;;;;;;11.50;5.75;;;;;;;13.37;93.78;100908.03;5284477;28;20034;-68
2021/07/30 02:54:07;;;;;;;9.52;6.18;;;;;;;13.37;93.57;100907.19;5286017;28;20024;-68
2021/07/30 02:56:38;;;;;;;12.18;6.40;;;;;;;13.34;94.25;100907.50;5287899;28;20042;-68
2021/07/30 02:59:10;;;;;;;12.85;6.38;;;;;;;13.36;95.14;100901.09;5284754;28;20028;-68
2021/07/30 03:01:41;;;;;;;12.10;6.55;;;;;;;13.40;94.89;100893.75;5287023;28;20017;-68
2021/07/30 03:04:12;;;;;;;14.30;6.43;;;;;;;13.37;93.87;100892.25;5286180;28;20708;-68
2021/07/30 03:06:43;;;;;;;15.38;7.35;;;;;;;13.36;95.01;100885.31;5287743;28;20043;-68
2021/07/30 03:09:15;;;;;;;15.88;6.32;;;;;;;13.38;95.44;100886.00;5286427;28;20081;-68
2021/07/30 03:11:46;;;;;;;11.75;7.15;;;;;;;13.38;95.29;100886.00;5288777;28;20119;-68
2021/07/30 03:14:17;;;;;;;12.05;6.50;;;;;;;13.38;95.29;100882.53;5285879;28;20035;-68
2021/07/30 03:16:48;;;;;;;13.25;7.00;;;;;;;13.38;95.22;100883.38;5287321;28;20435;-68
2021/07/30 03:19:20;;;;;;;11.90;6.57;;;;;;;13.39;95.67;100873.66;5286167;28;20055;-68
2021/07/30 03:21:52;;;;;;;19.40;7.82;;;;;;;13.44;95.83;100875.84;5287482;28;20046;-68
2021/07/30 03:24:23;;;;;;;14.75;7.07;;;;;;;13.46;95.67;100868.66;5287862;28;20025;-68
2021/07/30 03:26:54;;;;;;;12.18;6.65;;;;;;;13.48;95.51;100866.69;5286408;28;20046;-68
2021/07/30 03:29:25;;;;;;;15.85;7.10;;;;;;;13.50;95.55;100865.56;5287946;28;20063;-68
2021/07/30 03:31:57;;;;;;;15.98;7.50;;;;;;;13.53;95.70;100873.19;5284688;28;20632;-68
2021/07/30 03:34:32;;;;;;;13.38;7.32;;;;;;;13.53;95.10;100881.06;5287607;28;20020;-68
2021/07/30 03:37:04;;;;;;;13.82;6.53;;;;;;;13.51;95.02;100863.75;5284590;28;20025;-68
2021/07/30 03:39:35;;;;;;;11.48;6.85;;;;;;;13.53;93.95;100864.44;5285118;28;20039;-68
2021/07/30 03:42:08;;;;;;;11.73;6.80;;;;;;;13.53;95.33;100870.53;5289062;28;20536;-67
2021/07/30 03:44:39;;;;;;;13.45;6.97;;;;;;;13.55;95.23;100862.47;5285126;28;20039;-68
2021/07/30 03:47:11;;;;;;;14.40;7.40;;;;;;;13.58;95.06;100856.94;5288326;28;20025;-67
2021/07/30 03:49:42;;;;;;;15.55;7.57;;;;;;;13.55;95.35;100859.84;5283498;28;20031;-68
2021/07/30 03:52:16;;;;;;;14.25;7.13;;;;;;;13.56;95.37;100862.34;5287417;28;20059;-67
2021/07/30 03:54:47;;;;;;;17.38;7.63;;;;;;;13.53;95.35;100869.72;5287472;28;20396;-68
2021/07/30 03:57:18;;;;;;;11.02;6.70;;;;;;;13.52;95.90;100866.22;5286773;28;20028;-68
2021/07/30 03:59:53;;;;;;;12.15;7.15;;;;;;;13.55;95.96;100862.47;5283020;28;20033;-68
2021/07/30 04:02:24;;;;;;;13.00;6.60;;;;;;;13.53;96.19;100851.28;5283363;28;20031;-67
2021/07/30 04:04:55;;;;;;;15.70;6.95;;;;;;;13.52;96.14;100849.63;5281217;28;20315;-67
2021/07/30 04:07:26;;;;;;;11.83;6.33;;;;;;;13.51;95.70;100856.69;5285630;28;20092;-67
2021/07/30 04:09:58;;;;;;;11.98;6.75;;;;;;;13.56;95.85;100865.00;5284429;28;20278;-68
2021/07/30 04:12:29;;;;;;;10.45;6.55;;;;;;;13.54;96.33;100866.09;5284382;28;20472;-68
2021/07/30 04:15:00;;;;;;;12.13;6.25;;;;;;;13.53;96.68;100856.56;5285570;28;20028;-67
2021/07/30 04:17:32;;;;;;;15.85;6.70;;;;;;;13.52;96.78;100858.34;5284886;28;20028;-67
2021/07/30 04:20:03;;;;;;;14.23;6.57;;;;;;;13.57;96.52;100864.00;5287469;28;20070;-68
2021/07/30 04:22:34;;;;;;;11.40;6.72;;;;;;;13.57;96.87;100860.53;5281974;28;20482;-68
2021/07/30 04:25:06;;;;;;;15.10;6.85;;;;;;;13.60;97.04;100853.19;5286412;28;20432;-68
2021/07/30 04:27:38;;;;;;;14.32;6.80;;;;;;;13.63;97.20;100860.75;5286098;28;20417;-68
2021/07/30 04:30:09;;;;;;;11.68;6.50;;;;;;;13.67;97.24;100853.38;5284411;28;20024;-68
2021/07/30 04:32:41;;;;;;;14.48;6.53;;;;;;;13.69;97.38;100846.19;5284236;28;20476;-68
2021/07/30 04:35:12;;;;;;;12.40;7.25;;;;;;;13.72;97.82;100848.50;5285602;28;20061;-68
2021/07/30 04:37:43;;;;;;;14.18;6.70;;;;;;;13.76;97.61;100849.88;5283458;28;20197;-68
2021/07/30 04:40:14;;;;;;;13.85;7.07;;;;;;;13.81;97.15;100844.16;5284485;28;20040;-68
2021/07/30 04:42:46;;;;;;;12.02;6.43;;;;;;;13.84;97.02;100841.22;5286006;28;20042;-67
2021/07/30 04:45:17;;;;;;;11.07;6.20;;;;;;;13.91;97.09;100846.72;5286747;28;20032;-68
2021/07/30 04:47:48;;;;;;;11.38;6.15;;;;;;;13.94;97.01;100841.13;5284967;28;20283;-68
2021/07/30 04:50:20;;;;;;;11.85;7.07;;;;;;;13.96;97.06;100839.16;5284232;28;20029;-68
2021/07/30 04:52:54;;;;;;;13.90;6.80;;;;;;;14.01;97.20;100844.78;5286478;28;20085;-67
2021/07/30 04:55:26;;;;;;;13.73;6.18;;;;;;;14.03;97.17;100841.03;5285648;28;20039;-67
2021/07/30 04:57:57;;;;;;;14.23;6.32;;;;;;;14.08;96.59;100837.94;5283369;28;20028;-67
2021/07/30 05:00:29;;;;;;;13.07;6.93;;;;;;;14.12;96.52;100840.13;5285849;28;20473;-67
2021/07/30 05:03:00;;;;;;;13.43;6.55;;;;;;;14.16;96.65;100831.91;5286251;28;21207;-67
2021/07/30 05:05:31;;;;;;;10.40;6.33;;;;;;;14.19;96.32;100831.59;5284445;28;20474;-68
2021/07/30 05:08:03;;;;;;;14.05;6.43;;;;;;;14.25;96.00;100838.91;5283919;28;20286;-68
2021/07/30 05:10:34;;;;;;;11.25;6.10;;;;;;;14.29;96.01;100832.34;5286903;28;20455;-68
2021/07/30 05:13:05;;;;;;;11.57;6.10;;;;;;;14.34;96.37;100836.16;5285825;28;20020;-68
2021/07/30 05:15:37;;;;;;;13.40;6.47;;;;;;;14.42;96.07;100832.75;5281244;28;20020;-68
2021/07/30 05:18:08;;;;;;;8.67;6.03;;;;;;;14.47;95.43;100832.28;5284480;28;20367;-68
2021/07/30 05:20:41;;;;;;;12.32;6.45;;;;;;;14.51;95.60;100823.13;5284553;28;20694;-68
2021/07/30 05:23:12;;;;;;;12.77;6.15;;;;;;;14.51;95.16;100815.22;5265654;28;20024;-68
2021/07/30 05:25:52;;;;;;;11.50;6.75;;;;;;;14.63;94.65;100815.78;5284884;28;20024;-68
2021/07/30 05:28:23;;;;;;;11.43;5.85;;;;;;;14.62;94.41;100814.91;5285063;28;20255;-68
2021/07/30 05:30:57;;;;;;;13.18;5.93;;;;;;;14.64;94.30;100828.78;5283797;28;20024;-68
2021/07/30 05:33:29;;;;;;;13.43;6.78;;;;;;;14.68;94.28;100816.13;5281997;28;20039;-68
2021/07/30 05:36:00;;;;;;;11.77;6.35;;;;;;;14.73;93.73;100805.91;5285166;28;20845;-68
2021/07/30 05:38:31;;;;;;;11.85;6.43;;;;;;;14.77;93.59;100813.38;5285342;28;20428;-68
2021/07/30 05:41:02;;;;;;;12.65;5.72;;;;;;;14.82;93.36;100816.34;5284290;28;20105;-68
2021/07/30 05:43:34;;;;;;;11.52;6.22;;;;;;;14.91;93.08;100805.84;5282953;28;20093;-68
2021/07/30 05:46:06;;;;;;;14.95;6.43;;;;;;;14.98;92.38;100814.75;5283461;28;20047;-71
2021/07/30 05:48:37;;;;;;;14.25;6.07;;;;;;;15.04;91.99;100814.13;5283814;28;20527;-68
2021/07/30 05:51:12;;;;;;;11.38;5.97;;;;;;;15.14;91.68;100811.34;5285106;28;20019;-69
2021/07/30 05:53:43;;;;;;;14.50;6.30;;;;;;;15.22;91.55;100799.00;5263193;28;20584;-69
2021/07/30 05:56:15;;;;;;;12.65;6.13;;;;;;;15.28;91.08;100811.56;5285108;28;20124;-69
2021/07/30 05:58:46;;;;;;;10.50;5.10;;;;;;;15.38;90.50;100816.69;5283074;28;20016;-69
2021/07/30 06:01:17;;;;;;;14.20;5.82;;;;;;;15.43;89.92;100795.91;5281201;28;20380;-69
2021/07/30 06:03:49;;;;;;;10.25;5.47;;;;;;;15.55;89.55;100799.06;5284098;28;20084;-69
2021/07/30 06:06:20;;;;;;;11.18;5.25;;;;;;;15.65;89.31;100794.50;5284635;28;20031;-68
2021/07/30 06:08:51;;;;;;;12.68;5.47;;;;;;;15.76;89.41;100798.63;5266479;28;20061;-68
2021/07/30 06:11:22;;;;;;;7.25;4.90;;;;;;;15.90;88.87;100794.47;5282749;28;20081;-68
2021/07/30 06:13:54;;;;;;;11.02;4.97;;;;;;;16.03;88.66;100797.44;5274342;28;20040;-68
2021/07/30 06:16:25;;;;;;;11.13;5.13;;;;;;;16.17;88.12;100790.63;5279638;28;20043;-68
2021/07/30 06:18:56;;;;;;;8.63;4.50;;;;;;;16.26;87.94;100801.03;5277381;28;20114;-68
2021/07/30 06:21:30;;;;;;;7.75;4.82;;;;;;;16.27;87.85;100793.94;5279953;28;20173;-68
2021/07/30 06:24:01;;;;;;;10.15;4.80;;;;;;;16.35;88.81;100785.16;5278772;28;20024;-67
2021/07/30 06:26:33;;;;;;;11.40;5.35;;;;;;;16.42;88.66;100784.31;5282371;28;20020;-68
2021/07/30 06:29:04;;;;;;;11.25;4.82;;;;;;;16.53;89.36;100791.06;5280728;28;20033;-67
2021/07/30 06:31:35;;;;;;;10.30;5.05;;;;;;;16.61;87.67;100792.84;5284242;28;20027;-68
2021/07/30 06:34:07;;;;;;;11.05;4.82;;;;;;;16.68;87.26;100792.00;5285822;28;20031;-68
2021/07/30 06:36:39;;;;;;;12.98;4.95;;;;;;;16.73;86.93;100789.69;5279855;28;20030;-68
2021/07/30 06:39:10;;;;;;;9.95;5.25;;;;;;;16.81;86.68;100790.66;5284245;28;20038;-68
2021/07/30 06:41:41;;;;;;;11.63;4.88;;;;;;;16.90;87.09;100779.88;5281506;28;20053;-68
2021/07/30 06:44:12;;;;;;;8.55;4.38;;;;;;;16.94;86.65;100775.88;5277703;28;20039;-69
2021/07/30 06:46:44;;;;;;;9.82;4.47;;;;;;;16.98;86.79;100777.19;5274407;28;20678;-68
2021/07/30 06:49:15;;;;;;;9.90;4.13;;;;;;;17.02;85.88;100777.66;5274707;28;20397;-68
2021/07/30 06:51:46;;;;;;;9.20;4.38;;;;;;;17.10;85.46;100777.59;5274862;28;20017;-68
2021/07/30 06:54:18;;;;;;;8.10;4.57;;;;;;;17.21;84.52;100771.91;5280804;28;20492;-68
2021/07/30 06:56:49;;;;;;;8.88;4.43;;;;;;;17.25;83.78;100765.28;5285118;28;20021;-71
2021/07/30 06:59:20;;;;;;;8.55;4.05;;;;;;;17.32;84.26;100770.69;5287149;28;20379;-68
2021/07/30 07:01:51;;;;;;;7.50;4.20;;;;;;;17.34;83.60;100763.38;5281605;28;20033;-68
2021/07/30 07:04:23;;;;;;;8.65;4.60;;;;;;;17.36;82.96;100755.28;5287270;28;20030;-68
2021/07/30 07:06:54;;;;;;;7.25;4.43;;;;;;;17.37;82.46;100762.22;5289023;28;20278;-68
2021/07/30 07:09:25;;;;;;;9.25;4.85;;;;;;;17.37;82.27;100755.09;5282028;28;20104;-68
2021/07/30 07:11:57;;;;;;;6.47;4.15;;;;;;;17.42;82.05;100755.38;5286175;28;20075;-68
2021/07/30 07:14:29;;;;;;;10.85;4.20;;;;;;;17.50;82.09;100747.38;5287437;28;20663;-68
2021/07/30 07:17:00;;;;;;;10.82;4.05;;;;;;;17.56;82.14;100747.66;5287000;28;20036;-68
2021/07/30 07:19:31;;;;;;;6.93;3.78;;;;;;;17.62;81.62;100747.78;5283613;28;20044;-69
2021/07/30 07:22:03;;;;;;;10.50;4.20;;;;;;;17.67;81.35;100741.94;5281994;28;20123;-68
2021/07/30 07:24:34;;;;;;;7.70;3.47;;;;;;;17.77;82.18;100747.00;5283187;28;20289;-68
2021/07/30 07:27:07;;;;;;;7.00;3.83;;;;;;;17.83;81.60;100751.59;5287403;28;20123;-67
2021/07/30 07:29:38;;;;;;;9.68;4.70;;;;;;;17.91;80.61;100748.88;5285970;28;20059;-68
2021/07/30 07:32:09;;;;;;;6.93;3.97;;;;;;;17.97;80.23;100753.47;5282250;28;20373;-68
2021/07/30 07:34:40;;;;;;;14.68;4.25;;;;;;;18.03;79.66;100746.59;5287614;28;20024;-68
2021/07/30 07:37:11;;;;;;;7.50;4.00;;;;;;;18.09;79.96;100741.41;5286829;28;20032;-68
2021/07/30 07:39:43;;;;;;;4.90;3.40;;;;;;;18.18;80.04;100742.13;5284563;28;20109;-68
2021/07/30 07:42:14;;;;;;;7.20;3.87;;;;;;;18.21;78.65;100739.94;5286615;28;20036;-68
2021/07/30 07:44:49;;;;;;;5.50;3.30;;;;;;;18.30;78.95;100738.03;5287309;28;20481;-68
2021/07/30 07:47:20;;;;;;;8.57;3.60;;;;;;;18.33;78.36;100735.00;5283865;28;20495;-68
2021/07/30 07:49:52;;;;;;;9.23;3.67;;;;;;;18.43;77.93;100738.22;5284322;28;20017;-68
2021/07/30 07:52:23;;;;;;;7.47;3.53;;;;;;;18.49;78.23;100736.66;5282166;28;20027;-69
2021/07/30 07:54:54;;;;;;;9.07;3.08;;;;;;;18.53;77.59;100735.28;5286791;28;20035;-68
2021/07/30 07:57:25;;;;;;;11.80;3.20;;;;;;;18.75;76.80;100736.16;5284758;28;20055;-68
2021/07/30 07:59:57;;;;;;;11.20;3.30;;;;;;;18.87;76.25;100728.56;5283299;28;20457;-68
2021/07/30 08:02:28;;;;;;;7.30;3.22;;;;;;;18.99;75.66;100732.38;5285860;28;20027;-68
2021/07/30 08:04:59;;;;;;;7.43;3.10;;;;;;;19.08;74.76;100728.59;5282800;28;20279;-68
2021/07/30 08:07:31;;;;;;;10.20;3.47;;;;;;;19.18;75.01;100718.47;5284137;28;20027;-68
2021/07/30 08:10:02;;;;;;;5.97;3.27;;;;;;;19.31;73.84;100720.44;5285647;28;20029;-68
2021/07/30 08:12:33;;;;;;;6.30;3.20;;;;;;;19.42;73.79;100719.09;5282395;28;20032;-68
2021/07/30 08:15:06;;;;;;;5.03;2.95;;;;;;;19.53;72.81;100720.44;5285328;28;20115;-68
2021/07/30 08:17:38;;;;;;;6.90;2.85;;;;;;;19.64;71.58;100710.13;5285456;28;20039;-68
2021/07/30 08:20:09;;;;;;;5.57;2.70;;;;;;;19.77;70.59;100701.41;5284119;28;20041;-67
2021/07/30 08:22:42;;;;;;;4.63;2.47;;;;;;;19.84;70.53;100704.13;5284303;28;20035;-69
2021/07/30 08:25:14;;;;;;;6.18;2.92;;;;;;;20.06;69.86;100689.75;5283627;28;20028;-68
2021/07/30 08:27:45;;;;;;;5.77;2.73;;;;;;;20.19;69.65;100688.97;5284802;28;20066;-68
2021/07/30 08:30:16;;;;;;;6.17;2.80;;;;;;;20.30;68.09;100693.75;5284753;28;20089;-68
2021/07/30 08:32:48;;;;;;;8.33;2.87;;;;;;;20.45;67.74;100693.59;5284492;28;20024;-68
2021/07/30 08:35:19;;;;;;;6.50;2.40;;;;;;;20.59;66.58;100695.34;5283749;28;20032;-68
2021/07/30 08:37:50;;;;;;;8.37;2.70;;;;;;;20.72;67.26;100691.06;5285511;28;20032;-68
2021/07/30 08:40:22;;;;;;;8.73;3.00;;;;;;;20.69;64.34;100687.00;5284453;28;20032;-68
2021/07/30 08:42:53;;;;;;;4.97;2.40;;;;;;;20.94;65.89;100692.56;5284880;28;20021;-68
2021/07/30 08:45:25;;;;;;;5.97;2.47;;;;;;;21.04;64.71;100694.84;5283387;28;20149;-68
2021/07/30 08:48:00;;;;;;;4.80;2.43;;;;;;;21.09;64.40;100687.88;5284138;28;20024;-68
2021/07/30 08:50:32;;;;;;;8.23;2.42;;;;;;;21.13;64.27;100680.28;5282439;28;20021;-68
2021/07/30 08:53:04;;;;;;;2.95;2.30;;;;;;;21.17;64.22;100678.88;5284267;28;20032;-68
2021/07/30 08:55:36;;;;;;;4.25;2.25;;;;;;;21.27;66.13;100689.94;5284234;28;20035;-69
2021/07/30 08:58:08;;;;;;;6.20;2.40;;;;;;;21.37;65.51;100681.59;5282904;28;20040;-69
2021/07/30 09:00:40;;;;;;;4.63;2.40;;;;;;;21.32;63.80;100684.00;5281858;28;20101;-68
2021/07/30 09:03:11;;;;;;;6.17;2.27;;;;;;;21.35;64.38;100680.97;5284693;28;20028;-69
2021/07/30 09:05:42;;;;;;;5.37;2.53;;;;;;;21.45;62.85;100678.72;5280526;28;20046;-69
2021/07/30 09:08:23;;;;;;;5.90;2.33;;;;;;;21.69;63.67;100671.91;5284617;28;20036;-69
2021/07/30 09:10:54;;;;;;;6.50;2.67;;;;;;;21.77;63.24;100669.03;5284207;28;20431;-68
2021/07/30 09:13:27;;;;;;;5.57;2.20;;;;;;;21.93;61.87;100664.28;5262791;28;20103;-68
2021/07/30 09:16:00;;;;;;;5.85;2.50;;;;;;;21.96;61.38;100661.19;5267168;28;20036;-69
2021/07/30 09:18:36;;;;;;;6.10;2.33;;;;;;;22.11;60.86;100662.59;5266745;28;20033;-72
2021/07/30 09:21:17;;;;;;;7.00;2.85;;;;;;;22.27;62.00;100652.50;5265583;28;20059;-68
2021/07/30 09:24:00;;;;;;;5.28;2.50;;;;;;;22.56;60.95;100657.28;5269651;28;20032;-69
2021/07/30 09:26:39;;;;;;;5.57;2.35;;;;;;;22.79;59.49;100653.25;5272409;28;20028;-68
2021/07/30 09:29:12;;;;;;;5.55;2.00;;;;;;;22.75;57.66;100652.88;5270615;28;20055;-68
2021/07/30 09:31:47;;;;;;;4.55;2.33;;;;;;;22.97;56.78;100655.25;5269207;28;20449;-68
2021/07/30 09:34:28;;;;;;;9.63;2.65;;;;;;;23.21;57.30;100640.25;5265469;28;20031;-68
2021/07/30 09:37:23;;;;;;;8.73;2.72;;;;;;;23.47;55.97;100642.69;5269087;28;20036;-69
2021/07/30 09:39:54;;;;;;;5.40;2.72;;;;;;;23.41;55.69;100638.25;5257195;28;20044;-69
2021/07/30 09:42:31;;;;;;;5.50;2.10;;;;;;;23.43;55.54;100625.47;5267890;28;20703;-68
2021/07/30 09:45:09;;;;;;;6.13;2.20;;;;;;;23.52;56.92;100624.16;5267378;28;20081;-69
2021/07/30 09:47:48;;;;;;;6.82;2.22;;;;;;;23.60;56.75;100619.53;5266012;28;20032;-68
2021/07/30 09:50:20;;;;;;;4.20;2.20;;;;;;;23.73;54.75;100624.78;5266732;28;20024;-68
2021/07/30 09:52:53;;;;;;;8.52;2.40;;;;;;;23.78;55.13;100616.91;5267560;28;20661;-68
2021/07/30 09:55:25;;;;;;;4.45;2.35;;;;;;;23.70;53.79;100620.69;5267962;28;20027;-69
2021/07/30 09:57:56;;;;;;;8.33;2.50;;;;;;;23.78;52.94;100617.72;5268129;28;20024;-70
2021/07/30 10:00:30;;;;;;;5.53;2.90;;;;;;;23.71;54.23;100606.25;5267326;28;20081;-68
2021/07/30 10:03:02;;;;;;;7.43;2.55;;;;;;;23.76;54.84;100608.28;5275174;28;20036;-69
2021/07/30 10:05:35;;;;;;;4.50;2.60;;;;;;;23.83;54.08;100598.34;5280818;28;20103;-68
2021/07/30 10:08:07;;;;;;;7.18;2.33;;;;;;;23.89;54.24;100597.44;5288883;28;20052;-68
2021/07/30 10:10:42;;;;;;;6.03;2.20;;;;;;;24.00;54.30;100599.34;5285874;28;20051;-69
2021/07/30 10:13:16;;;;;;;4.78;2.22;;;;;;;24.08;53.19;100592.06;5287465;28;20029;-68
2021/07/30 10:15:49;;;;;;;5.45;2.90;;;;;;;24.26;53.27;100589.34;5284018;28;20114;-69
2021/07/30 10:18:20;;;;;;;7.18;2.65;;;;;;;24.31;53.05;100583.31;5285586;28;20712;-69
2021/07/30 10:20:53;;;;;;;9.43;3.70;;;;;;;24.40;52.57;100574.78;5287563;28;20040;-69
2021/07/30 10:23:25;;;;;;;4.78;2.50;;;;;;;24.28;52.07;100577.38;5281699;28;20034;-68
2021/07/30 10:25:59;;;;;;;10.07;2.80;;;;;;;24.54;53.71;100577.25;5283252;28;20013;-68
2021/07/30 10:28:33;;;;;;;5.10;2.95;;;;;;;24.65;51.65;100569.25;5278571;28;20028;-68
2021/07/30 10:31:10;;;;;;;3.53;2.38;;;;;;;24.99;51.17;100569.53;5284801;28;20028;-68
2021/07/30 10:33:45;;;;;;;3.45;2.40;;;;;;;25.18;51.72;100571.09;5282134;28;20028;-69
2021/07/30 10:36:28;;;;;;;3.40;2.47;;;;;;;25.20;50.75;100568.19;5285420;28;20036;-69
2021/07/30 10:39:08;;;;;;;5.13;2.80;;;;;;;24.93;50.28;100573.97;5287676;28;20512;-68
2021/07/30 10:41:39;;;;;;;5.80;2.78;;;;;;;24.94;50.86;100569.41;5266839;28;20057;-69
2021/07/30 10:44:11;;;;;;;3.90;2.27;;;;;;;24.84;50.15;100561.94;5280577;28;20032;-68
2021/07/30 10:46:42;;;;;;;8.83;2.73;;;;;;;24.91;50.41;100551.94;5277387;28;20059;-68
2021/07/30 10:49:39;;;;;;;5.50;2.40;;;;;;;25.15;50.24;100552.78;5275444;28;20058;-68
2021/07/30 10:52:27;;;;;;;8.07;3.42;;;;;;;25.21;49.29;100543.00;5271181;28;20021;-78
2021/07/30 10:54:59;;;;;;;4.72;2.45;;;;;;;25.08;49.12;100549.41;5276971;28;20037;-68
2021/07/30 10:58:08;;;;;;;5.13;2.60;;;;;;;25.17;48.87;100533.78;5272746;28;20508;-68
2021/07/30 11:00:55;;;;;;;4.38;2.90;;;;;;;25.19;48.81;100532.53;5186177;28;20461;-69
2021/07/30 11:03:26;;;;;;;4.60;2.70;;;;;;;25.40;49.30;100523.03;5185447;28;20038;-67
2021/07/30 11:06:09;;;;;;;7.40;2.90;;;;;;;25.54;48.18;100522.78;5239320;28;20048;-69
2021/07/30 11:09:17;;;;;;;4.40;2.80;;;;;;;25.60;48.37;100532.56;5266979;28;20034;-69
2021/07/30 11:11:49;;;;;;;7.30;2.70;;;;;;;25.30;48.51;100530.03;5187532;28;20030;-67
2021/07/30 11:14:31;;;;;;;4.40;3.08;;;;;;;25.36;48.60;100534.47;5246201;28;20917;-67
2021/07/30 11:17:05;;;;;;;5.70;2.72;;;;;;;25.50;48.68;100529.69;5251931;28;20100;-70
2021/07/30 11:19:42;;;;;;;5.68;2.90;;;;;;;25.40;48.03;100523.03;5267566;28;20053;-71
2021/07/30 11:22:16;;;;;;;5.03;2.95;;;;;;;25.41;48.48;100529.22;5270848;28;20044;-70
2021/07/30 11:24:52;;;;;;;5.35;2.88;;;;;;;25.30;48.45;100532.72;5269129;28;20512;-70
2021/07/30 11:27:24;;;;;;;4.22;2.70;;;;;;;25.26;49.11;100528.88;5269425;28;20167;-74
2021/07/30 11:29:56;;;;;;;5.27;2.77;;;;;;;25.19;49.11;100539.72;5267451;28;20033;-71
2021/07/30 11:32:29;;;;;;;5.38;3.08;;;;;;;24.81;49.61;100527.56;5270032;28;20037;-73
2021/07/30 11:35:09;;;;;;;5.38;2.38;;;;;;;24.74;50.35;100537.59;5262935;28;20024;-70
2021/07/30 11:37:40;;;;;;;5.60;3.20;;;;;;;24.68;51.49;100531.28;5265423;28;20500;-68
2021/07/30 11:40:15;;;;;;;7.03;3.00;;;;;;;24.62;51.48;100526.84;5268712;28;20028;-69
2021/07/30 11:42:47;;;;;;;7.07;2.70;;;;;;;24.78;51.48;100519.19;5269601;28;20508;-70
2021/07/30 11:45:21;;;;;;;4.73;3.03;;;;;;;24.82;50.80;100521.19;5267545;28;20105;-70
2021/07/30 11:47:53;;;;;;;3.80;2.60;;;;;;;24.71;50.67;100524.66;5268185;28;20041;-70
2021/07/30 11:50:26;;;;;;;5.77;2.93;;;;;;;24.66;51.21;100524.53;5265278;28;20035;-69